createdAt,value
2023-05-02T00:00:41.694Z,100
2023-05-02T00:06:34.288Z,99.3
2023-05-02T00:13:36.250Z,97.5
2023-05-02T00:19:26.859Z,98.5
2023-05-02T00:25:18.974Z,99
2023-05-02T00:31:13.624Z,98.4
2023-05-02T00:37:05.683Z,99.3
2023-05-02T00:42:59.804Z,99.2
2023-05-02T00:48:51.935Z,99.6
2023-05-02T00:54:44.437Z,99.1
2023-05-02T01:00:36.452Z,97.4
2023-05-02T01:06:28.387Z,99
2023-05-02T01:12:20.884Z,98.8
2023-05-02T01:18:12.281Z,98.5
2023-05-02T01:24:05.380Z,98.3
2023-05-02T01:29:57.667Z,98.9
2023-05-02T01:35:50.814Z,100
2023-05-02T01:41:43.682Z,100
2023-05-02T01:47:36.022Z,100
2023-05-02T01:53:28.774Z,100
2023-05-02T01:59:21.168Z,100
2023-05-02T02:05:12.980Z,100
2023-05-02T02:11:05.033Z,100
2023-05-02T02:16:56.649Z,100
2023-05-02T02:22:49.258Z,99.8
2023-05-02T02:28:41.061Z,100
2023-05-02T02:34:33.221Z,100
2023-05-02T02:40:24.600Z,100
2023-05-02T02:46:16.537Z,100
2023-05-02T02:52:07.950Z,100
2023-05-02T02:58:00.330Z,100
2023-05-02T03:03:52.674Z,100
2023-05-02T03:09:44.931Z,100
2023-05-02T03:15:37.555Z,100
2023-05-02T03:21:31.531Z,100
2023-05-02T03:27:23.012Z,100
2023-05-02T03:33:16.007Z,100
2023-05-02T03:39:08.781Z,99.6
2023-05-02T03:45:00.769Z,99.7
2023-05-02T03:50:52.996Z,100
2023-05-02T03:56:44.575Z,100
2023-05-02T04:02:36.632Z,100
2023-05-02T04:08:29.785Z,100
2023-05-02T04:14:22.090Z,100
2023-05-02T04:20:15.065Z,100
2023-05-02T04:26:07.714Z,100
2023-05-02T04:32:01.267Z,100
2023-05-02T04:37:56.108Z,100
2023-05-02T04:43:48.130Z,100
2023-05-02T04:49:40.430Z,100
2023-05-02T04:55:32.826Z,100
2023-05-02T05:01:24.642Z,100
2023-05-02T05:07:16.967Z,100
2023-05-02T05:13:09.171Z,100
2023-05-02T05:19:01.298Z,100
2023-05-02T05:24:53.861Z,100
2023-05-02T05:30:45.697Z,100
2023-05-02T05:36:37.819Z,100
2023-05-02T05:42:29.896Z,100
2023-05-02T05:48:21.378Z,100
2023-05-02T05:54:14.051Z,100
2023-05-02T06:00:06.580Z,100
2023-05-02T06:05:59.203Z,100
2023-05-02T06:11:53.286Z,100
2023-05-02T06:17:45.484Z,100
2023-05-02T06:23:38.030Z,100
2023-05-02T06:29:31.235Z,100
2023-05-02T06:35:24.543Z,100
2023-05-02T06:41:19.589Z,100
2023-05-02T06:47:09.713Z,100
2023-05-02T06:53:01.395Z,100
2023-05-02T06:58:53.409Z,100
2023-05-02T07:04:46.507Z,100
2023-05-02T07:10:39.220Z,100
2023-05-02T07:16:30.977Z,100
2023-05-02T07:22:23.650Z,100
2023-05-02T07:28:13.974Z,100
2023-05-02T07:34:06.190Z,98.8
2023-05-02T07:39:59.237Z,99.3
2023-05-02T07:45:53.339Z,100
2023-05-02T07:51:47.617Z,100
2023-05-02T07:57:39.657Z,100
2023-05-02T08:03:33.926Z,100
2023-05-02T08:09:27.297Z,100
2023-05-02T08:15:21.392Z,100
2023-05-02T08:21:12.731Z,100
2023-05-02T08:27:04.794Z,100
2023-05-02T08:33:00.098Z,100
2023-05-02T08:38:52.089Z,100
2023-05-02T08:44:44.418Z,100
2023-05-02T08:50:37.014Z,100
2023-05-02T08:56:29.041Z,100
2023-05-02T09:02:22.419Z,100
2023-05-02T09:08:14.511Z,100
2023-05-02T09:14:06.298Z,99.6
2023-05-02T09:19:58.496Z,99.3
2023-05-02T09:25:50.457Z,99.2
2023-05-02T09:31:55.371Z,98
2023-05-02T09:37:45.565Z,97.5
2023-05-02T09:43:35.479Z,98.6
2023-05-02T09:49:27.236Z,97.5
2023-05-02T09:55:17.848Z,95.1
2023-05-02T10:01:08.356Z,95
2023-05-02T10:07:00.139Z,93.1
2023-05-02T10:12:52.869Z,92.3
2023-05-02T10:18:45.211Z,92
2023-05-02T10:24:37.084Z,92.6
2023-05-02T10:30:31.710Z,91
2023-05-02T10:36:23.329Z,89.9
2023-05-02T10:42:15.028Z,89.6
2023-05-02T10:48:06.812Z,88.5
2023-05-02T10:54:00.689Z,88
2023-05-02T10:59:55.979Z,87.3
2023-05-02T11:05:48.280Z,85.4
2023-05-02T11:11:40.215Z,85.9
2023-05-02T11:17:32.877Z,84.1
2023-05-02T11:23:25.392Z,83
2023-05-02T11:29:20.848Z,82.6
2023-05-02T11:35:13.731Z,81.8
2023-05-02T11:41:06.010Z,81.3
2023-05-02T11:46:58.249Z,80.9
2023-05-02T11:53:02.794Z,80.7
2023-05-02T11:59:09.609Z,79.6
2023-05-02T12:05:12.280Z,79.1
2023-05-02T12:11:04.211Z,78
2023-05-02T12:16:55.050Z,74.9
2023-05-02T12:22:46.679Z,75.5
2023-05-02T12:28:38.146Z,75.1
2023-05-02T12:34:30.720Z,74.6
2023-05-02T12:40:23.813Z,73.3
2023-05-02T12:46:15.011Z,73.3
2023-05-02T12:52:06.903Z,72
2023-05-02T12:57:58.613Z,73.8
2023-05-02T13:03:50.699Z,73.6
2023-05-02T13:09:41.811Z,73.3
2023-05-02T13:15:33.134Z,72.3
2023-05-02T13:21:23.855Z,70.8
2023-05-02T13:27:14.275Z,69.6
2023-05-02T13:33:05.630Z,68.9
2023-05-02T13:38:56.510Z,67.9
2023-05-02T13:44:45.777Z,66.9
2023-05-02T13:50:36.210Z,65
2023-05-02T13:56:26.609Z,64.4
2023-05-02T14:02:17.625Z,63.9
2023-05-02T14:08:08.650Z,62
2023-05-02T14:14:00.216Z,62
2023-05-02T14:19:52.264Z,62.9
2023-05-02T14:25:45.102Z,62.6
2023-05-02T14:31:37.506Z,62.4
2023-05-02T14:37:29.217Z,61.3
2023-05-02T14:43:23.274Z,61.7
2023-05-02T14:49:15.089Z,60.2
2023-05-02T14:55:07.366Z,59.7
2023-05-02T15:01:00.476Z,60.1
2023-05-02T15:06:52.989Z,59.2
2023-05-02T15:12:46.935Z,58.7
2023-05-02T15:18:39.488Z,57.1
2023-05-02T15:24:32.629Z,57.8
2023-05-02T15:30:25.544Z,54.7
2023-05-02T15:36:16.966Z,53.6
2023-05-02T15:42:09.215Z,55.4
2023-05-02T15:48:02.366Z,56
2023-05-02T15:53:54.302Z,55.4
2023-05-02T16:00:56.891Z,56.8
2023-05-02T16:06:49.834Z,55
2023-05-02T16:12:43.971Z,55.6
2023-05-02T16:18:35.825Z,54.8
2023-05-02T16:24:31.320Z,54.5
2023-05-02T16:30:24.004Z,52.4
2023-05-02T16:36:19.867Z,53.2
2023-05-02T16:42:18.070Z,53.3
2023-05-02T16:48:17.603Z,53
2023-05-02T16:54:15.336Z,52.7
2023-05-02T17:00:10.593Z,53
2023-05-02T17:06:04.397Z,52.6
2023-05-02T17:11:56.897Z,52.6
2023-05-02T17:17:53.138Z,52.5
2023-05-02T17:23:44.652Z,52.9
2023-05-02T17:29:37.187Z,53.1
2023-05-02T17:35:29.211Z,52
2023-05-02T17:41:22.027Z,51.5
2023-05-02T17:47:15.119Z,52.1
2023-05-02T17:53:09.555Z,51.5
2023-05-02T17:59:01.458Z,52
2023-05-02T18:04:54.674Z,52.4
2023-05-02T18:10:55.303Z,52.8
2023-05-02T18:16:45.454Z,53.4
2023-05-02T18:22:40.895Z,53.9
2023-05-02T18:28:44.660Z,54.4
2023-05-02T18:34:39.731Z,55.6
2023-05-02T18:40:43.465Z,56.2
2023-05-02T18:46:45.532Z,55.9
2023-05-02T18:52:37.616Z,58.5
2023-05-02T18:58:29.664Z,59.8
2023-05-02T19:04:21.426Z,61.6
2023-05-02T19:10:13.420Z,62.5
2023-05-02T19:16:07.970Z,64.5
2023-05-02T19:22:00.282Z,64.2
2023-05-02T19:27:50.833Z,65.6
2023-05-02T19:33:41.238Z,66.6
2023-05-02T19:39:34.141Z,66.9
2023-05-02T19:45:29.082Z,67.5
2023-05-02T19:51:19.909Z,67.5
2023-05-02T19:57:11.747Z,69.1
2023-05-02T20:03:10.285Z,69.4
2023-05-02T20:09:01.117Z,70.9
2023-05-02T20:14:52.365Z,71.2
2023-05-02T20:20:42.858Z,71.7
2023-05-02T20:26:35.803Z,72.3
2023-05-02T20:32:28.074Z,73.1
2023-05-02T20:38:24.472Z,73
2023-05-02T20:44:18.751Z,73.2
2023-05-02T20:50:10.727Z,73
2023-05-02T20:56:03.787Z,74.6
2023-05-02T21:01:59.946Z,74.5
2023-05-02T21:07:53.199Z,74.4
2023-05-02T21:13:45.372Z,75
2023-05-02T21:19:36.681Z,75.4
2023-05-02T21:25:27.021Z,75
2023-05-02T21:31:21.939Z,76.1
2023-05-02T21:37:15.216Z,76.1
2023-05-02T21:43:07.084Z,77.2
2023-05-02T21:48:58.704Z,77.6
2023-05-02T21:54:51.239Z,76.8
2023-05-02T22:00:43.039Z,76.9
2023-05-02T22:06:34.224Z,77.9
2023-05-02T22:12:27.219Z,78
2023-05-02T22:18:19.743Z,78.6
2023-05-02T22:24:11.048Z,79.5
2023-05-02T22:30:04.527Z,78.3
2023-05-02T22:35:54.630Z,79.4
2023-05-02T22:41:46.909Z,79.6
2023-05-02T22:47:38.013Z,78.6
2023-05-02T22:53:31.893Z,79.4
2023-05-02T22:59:22.484Z,79.1
2023-05-02T23:05:17.272Z,79.1
2023-05-02T23:11:09.271Z,79.4
2023-05-02T23:17:00.357Z,82.7
2023-05-02T23:22:52.248Z,81.4
2023-05-02T23:28:43.545Z,81.7
2023-05-02T23:34:34.555Z,82.3
2023-05-02T23:40:24.771Z,83.8
2023-05-02T23:46:20.914Z,81.5
2023-05-02T23:52:12.043Z,82.7
2023-05-02T23:58:03.328Z,83.3
